Terminal Aerodrome Forecast
Issued by NWS

Home | Current Version | Previous Version | Text Only | Print | Product List | Glossary On
Versions: 1 2 3 4 5 6 7 8 9 10 11 12 13 14 15 16 17
000
FTUS46 KMTR 282300
TAFSTS
TAF
KSTS 282333Z 0100/0124 16007KT P6SM VCSH SCT050 BKN100
     FM010400 VRB03KT P6SM FEW030
     FM010800 00000KT P6SM SKC
     FM012100 16007KT P6SM FEW040=

USA.gov is the U.S. government's official web portal to all federal, state and local government web resources and services.